Caribbean Galaxy — 3EZV4 — position and weather

sailwx.info

Track history (hours):
 
Tides and Currents Weather Stations Pressure Air Temp Water Temp Dewpoint Dewpoint Depression Visibility Wind Speed Wind Dir Waves Ship Positions

Caribbean Galaxy

Last reported at 2016-Jul-21 16:23 UTC. Time now 2016-Jul-27 05:48 UTC.
Position N 01°16' E 104°13'.

Length 246 m; draft 9.8 m.

Type: Tanker. MMSI: 357449000.

Date/timePositionNaut miles runAvg speedWind from/ knotsBaromVisibWave heightAir tempDewpointWater temp
2016-Jul-21 16:23N 01°16' E 104°13'910.8
2016-Jul-21 15:32N 01°15' E 104°04'10 9.9
2016-Jul-21 14:34N 01°12' E 103°55'9 9.0
2016-Jul-21 13:33N 01°09' E 103°47'78 7.8
2016-Jul-21 03:30N 01°43' E 102°36'10 8.4
2016-Jul-21 02:18N 01°47' E 102°27'6 8.6
2016-Jul-21 01:33N 01°50' E 102°21'  
2016-Jul-18 08:25N 02°01' E 102°10'5 5.4
2016-Jul-18 07:33N 01°58' E 102°14'6 5.8
2016-Jul-18 06:33N 01°55' E 102°19'7 6.6
2016-Jul-18 05:34N 01°52' E 102°25'7 7.1
2016-Jul-18 04:33N 01°49' E 102°31'7 6.9
2016-Jul-18 03:31N 01°46' E 102°37'8 8.3
2016-Jul-18 02:33N 01°44' E 102°45'9 8.3
2016-Jul-18 01:28N 01°40' E 102°53'54 7.3
2016-Jul-17 18:06N 01°11' E 103°39'3 4.0
2016-Jul-17 17:27N 01°10' E 103°42'5 5.6
2016-Jul-17 16:33N 01°10' E 103°47'7 6.5
2016-Jul-17 15:33N 01°13' E 103°52'7 6.7
2016-Jul-17 14:33N 01°15' E 103°59'9 9.2
2016-Jul-17 13:33N 01°16' E 104°08'  
Track history (hours):
 
Tides and Currents Weather Stations Pressure Air Temp Water Temp Dewpoint Dewpoint Depression Visibility Wind Speed Wind Dir Waves Ship Positions

Caribbean Galaxy

Last reported at 2016-Jul-21 16:23 UTC. Time now 2016-Jul-27 05:48 UTC.
Position N 01°16' E 104°13'.

Length 246 m; draft 9.8 m.

Type: Tanker. MMSI: 357449000.

Date/timePositionNaut miles runAvg speedWind from/ knotsBaromVisibWave heightAir tempDewpointWater temp
2016-Jul-21 16:23N 01°16' E 104°13'910.8
2016-Jul-21 15:32N 01°15' E 104°04'10 9.9
2016-Jul-21 14:34N 01°12' E 103°55'9 9.0
2016-Jul-21 13:33N 01°09' E 103°47'78 7.8
2016-Jul-21 03:30N 01°43' E 102°36'10 8.4
2016-Jul-21 02:18N 01°47' E 102°27'6 8.6
2016-Jul-21 01:33N 01°50' E 102°21'  
2016-Jul-18 08:25N 02°01' E 102°10'5 5.4
2016-Jul-18 07:33N 01°58' E 102°14'6 5.8
2016-Jul-18 06:33N 01°55' E 102°19'7 6.6
2016-Jul-18 05:34N 01°52' E 102°25'7 7.1
2016-Jul-18 04:33N 01°49' E 102°31'7 6.9
2016-Jul-18 03:31N 01°46' E 102°37'8 8.3
2016-Jul-18 02:33N 01°44' E 102°45'9 8.3
2016-Jul-18 01:28N 01°40' E 102°53'54 7.3
2016-Jul-17 18:06N 01°11' E 103°39'3 4.0
2016-Jul-17 17:27N 01°10' E 103°42'5 5.6
2016-Jul-17 16:33N 01°10' E 103°47'7 6.5
2016-Jul-17 15:33N 01°13' E 103°52'7 6.7
2016-Jul-17 14:33N 01°15' E 103°59'9 9.2
2016-Jul-17 13:33N 01°16' E 104°08'  

Dump ship's entire track history